createdAt,value
2022-08-19T00:00:09.476Z,62.95
2022-08-19T00:02:37.266Z,62.94
2022-08-19T00:05:05.147Z,63.07
2022-08-19T00:07:31.994Z,63.31
2022-08-19T00:09:58.782Z,63.44
2022-08-19T00:12:25.526Z,63.39
2022-08-19T00:14:54.114Z,63.59
2022-08-19T00:17:21.592Z,63.60
2022-08-19T00:19:48.362Z,63.74
2022-08-19T00:22:15.716Z,63.81
2022-08-19T00:24:50.792Z,64.09
2022-08-19T00:27:26.533Z,63.97
2022-08-19T00:29:53.934Z,64.17
2022-08-19T00:32:21.801Z,64.44
2022-08-19T00:34:48.661Z,64.37
2022-08-19T00:37:15.471Z,64.80
2022-08-19T00:39:42.259Z,64.93
2022-08-19T00:42:09.235Z,64.94
2022-08-19T00:44:36.578Z,65.00
2022-08-19T00:47:03.844Z,65.19
2022-08-19T00:49:57.937Z,65.54
2022-08-19T00:52:34.764Z,65.79
2022-08-19T00:55:03.600Z,65.84
2022-08-19T00:57:41.279Z,66.12
2022-08-19T01:00:13.013Z,66.37
2022-08-19T01:02:41.214Z,66.47
2022-08-19T01:05:13.070Z,66.73
2022-08-19T01:07:41.704Z,66.89
2022-08-19T01:10:17.401Z,67.00
2022-08-19T01:12:44.579Z,66.93
2022-08-19T01:15:15.062Z,67.18
2022-08-19T01:17:43.817Z,67.21
2022-08-19T01:20:18.142Z,67.53
2022-08-19T01:22:51.601Z,67.52
2022-08-19T01:25:22.769Z,67.66
2022-08-19T01:27:53.597Z,67.76
2022-08-19T01:30:25.433Z,68.00
2022-08-19T01:32:53.701Z,67.88
2022-08-19T01:35:24.521Z,68.02
2022-08-19T01:37:55.928Z,68.14
2022-08-19T01:40:26.142Z,68.21
2022-08-19T01:42:53.894Z,68.25
2022-08-19T01:45:23.903Z,68.33
2022-08-19T01:47:51.646Z,68.42
2022-08-19T01:50:28.843Z,68.50
2022-08-19T01:53:02.315Z,68.58
2022-08-19T01:55:34.656Z,68.64
2022-08-19T01:58:04.004Z,68.61
2022-08-19T02:00:33.189Z,68.60
2022-08-19T02:03:02.215Z,69.00
2022-08-19T02:05:30.288Z,69.09
2022-08-19T02:07:58.279Z,68.71
2022-08-19T02:10:25.289Z,68.99
2022-08-19T02:12:52.334Z,69.30
2022-08-19T02:15:21.231Z,69.08
2022-08-19T02:17:48.992Z,69.19
2022-08-19T02:20:16.406Z,69.36
2022-08-19T02:22:43.983Z,69.30
2022-08-19T02:25:13.222Z,69.26
2022-08-19T02:27:41.323Z,69.34
2022-08-19T02:30:14.099Z,69.30
2022-08-19T02:32:44.677Z,69.25
2022-08-19T02:35:13.547Z,69.49
2022-08-19T02:38:00.093Z,69.80
2022-08-19T02:40:27.444Z,69.92
2022-08-19T02:42:54.561Z,69.92
2022-08-19T02:45:21.630Z,70.03
2022-08-19T02:47:48.512Z,70.35
2022-08-19T02:50:15.723Z,70.65
2022-08-19T02:52:42.515Z,70.53
2022-08-19T02:55:09.951Z,70.83
2022-08-19T02:57:36.985Z,71.10
2022-08-19T03:00:08.452Z,71.30
2022-08-19T03:02:35.581Z,71.23
2022-08-19T03:05:04.620Z,71.33
2022-08-19T03:07:31.710Z,71.45
2022-08-19T03:09:58.673Z,71.42
2022-08-19T03:12:25.547Z,71.57
2022-08-19T03:14:53.084Z,71.75
2022-08-19T03:17:20.723Z,71.65
2022-08-19T03:19:47.490Z,71.83
2022-08-19T03:22:14.304Z,71.77
2022-08-19T03:24:41.565Z,72.07
2022-08-19T03:27:08.343Z,72.22
2022-08-19T03:29:43.281Z,72.35
2022-08-19T03:32:32.133Z,72.13
2022-08-19T03:34:58.426Z,72.19
2022-08-19T03:37:25.135Z,72.34
2022-08-19T03:39:52.698Z,72.34
2022-08-19T03:42:31.954Z,72.38
2022-08-19T03:45:00.410Z,72.59
2022-08-19T03:47:27.185Z,72.70
2022-08-19T03:49:53.913Z,72.91
2022-08-19T03:52:20.683Z,72.99
2022-08-19T03:54:47.415Z,73.05
2022-08-19T03:57:14.148Z,73.03
2022-08-19T03:59:41.032Z,73.20
2022-08-19T04:02:11.653Z,73.31
2022-08-19T04:04:40.730Z,73.38
2022-08-19T04:07:09.385Z,73.38
2022-08-19T04:09:37.653Z,73.65
2022-08-19T04:12:06.591Z,73.67
2022-08-19T04:14:35.359Z,74.12
2022-08-19T04:17:06.021Z,74.13
2022-08-19T04:19:35.700Z,74.22
2022-08-19T04:22:03.026Z,74.32
2022-08-19T04:24:29.777Z,74.31
2022-08-19T04:26:57.174Z,74.39
2022-08-19T04:29:26.525Z,74.55
2022-08-19T04:31:55.448Z,74.67
2022-08-19T04:34:24.996Z,74.79
2022-08-19T04:36:53.499Z,74.68
2022-08-19T04:39:24.427Z,74.70
2022-08-19T04:42:10.015Z,74.54
2022-08-19T04:44:45.973Z,74.53
2022-08-19T04:47:13.514Z,74.57
2022-08-19T04:49:40.242Z,74.78
2022-08-19T04:52:07.112Z,75.04
2022-08-19T04:54:37.310Z,74.98
2022-08-19T04:57:07.913Z,74.84
2022-08-19T04:59:35.990Z,75.05
2022-08-19T05:02:04.959Z,75.16
2022-08-19T05:04:33.225Z,75.21
2022-08-19T05:07:02.270Z,75.41
2022-08-19T05:09:52.612Z,75.22
2022-08-19T05:12:18.979Z,75.36
2022-08-19T05:14:48.364Z,75.13
2022-08-19T05:17:37.533Z,75.17
2022-08-19T05:20:23.085Z,75.31
2022-08-19T05:22:49.975Z,75.45
2022-08-19T05:25:20.269Z,75.26
2022-08-19T05:27:47.329Z,75.19
2022-08-19T05:30:15.141Z,75.63
2022-08-19T05:32:43.465Z,75.23
2022-08-19T05:35:10.737Z,75.29
2022-08-19T05:37:37.724Z,75.11
2022-08-19T05:40:05.803Z,75.13
2022-08-19T05:42:32.894Z,75.06
2022-08-19T05:44:59.747Z,75.31
2022-08-19T05:47:26.819Z,75.38
2022-08-19T05:49:53.582Z,75.16
2022-08-19T05:52:25.787Z,75.21
2022-08-19T05:54:55.892Z,75.28
2022-08-19T05:57:23.707Z,75.29
2022-08-19T05:59:53.261Z,75.57
2022-08-19T06:02:29.125Z,75.63
2022-08-19T06:04:55.908Z,75.50
2022-08-19T06:07:22.866Z,75.30
2022-08-19T06:09:59.705Z,75.64
2022-08-19T06:12:35.456Z,75.43
2022-08-19T06:15:12.628Z,75.68
2022-08-19T06:17:39.678Z,75.63
2022-08-19T06:20:09.828Z,75.53
2022-08-19T06:22:41.436Z,75.45
2022-08-19T06:25:10.319Z,75.58
2022-08-19T06:27:48.262Z,75.75
2022-08-19T06:30:25.294Z,75.76
2022-08-19T06:32:52.087Z,75.76
2022-08-19T06:35:20.146Z,75.57
2022-08-19T06:37:46.955Z,75.55
2022-08-19T06:40:13.829Z,75.47
2022-08-19T06:42:49.488Z,75.52
2022-08-19T06:45:24.964Z,75.48
2022-08-19T06:48:01.537Z,75.62
2022-08-19T06:50:30.583Z,75.85
2022-08-19T06:52:57.377Z,75.42
2022-08-19T06:55:33.272Z,75.58
2022-08-19T06:58:04.823Z,75.63
2022-08-19T07:03:07.836Z,75.27
2022-08-19T07:05:45.732Z,75.05
2022-08-19T07:08:13.977Z,75.14
2022-08-19T07:10:44.862Z,74.78
2022-08-19T07:13:12.534Z,74.80
2022-08-19T07:15:39.884Z,74.64
2022-08-19T07:18:06.927Z,74.47
2022-08-19T07:20:33.892Z,74.19
2022-08-19T07:23:01.564Z,73.75
2022-08-19T07:25:34.060Z,73.44
2022-08-19T07:28:01.551Z,73.55
2022-08-19T07:30:28.640Z,73.47
2022-08-19T07:32:57.291Z,73.47
2022-08-19T07:35:26.178Z,73.29
2022-08-19T07:37:54.124Z,73.08
2022-08-19T07:40:21.203Z,72.77
2022-08-19T07:42:48.069Z,72.58
2022-08-19T07:45:16.647Z,72.45
2022-08-19T07:47:49.996Z,72.16
2022-08-19T07:50:20.503Z,72.07
2022-08-19T07:52:50.579Z,71.85
2022-08-19T07:55:41.793Z,71.58
2022-08-19T07:58:07.498Z,71.39
2022-08-19T08:00:34.904Z,71.40
2022-08-19T08:03:02.772Z,71.33
2022-08-19T08:05:47.979Z,71.33
2022-08-19T08:08:44.354Z,71.16
2022-08-19T08:11:20.105Z,71.47
2022-08-19T08:14:01.453Z,71.90
2022-08-19T08:16:35.065Z,71.66
2022-08-19T08:19:01.983Z,71.54
2022-08-19T08:21:28.817Z,71.42
2022-08-19T08:23:56.757Z,70.63
2022-08-19T08:26:24.451Z,69.28
2022-08-19T08:28:51.250Z,68.26
2022-08-19T08:31:19.639Z,67.44
2022-08-19T08:33:47.771Z,66.98
2022-08-19T08:36:15.978Z,65.30
2022-08-19T08:38:46.498Z,64.76
2022-08-19T08:41:22.834Z,62.20
2022-08-19T08:43:53.081Z,60.14
2022-08-19T08:46:35.463Z,59.10
2022-08-19T08:49:09.744Z,58.31
2022-08-19T08:54:18.867Z,56.96
2022-08-19T08:56:49.561Z,56.51
2022-08-19T08:59:41.856Z,56.10
2022-08-19T09:02:08.895Z,55.67
2022-08-19T09:04:37.223Z,54.63
2022-08-19T09:07:35.420Z,55.31
2022-08-19T09:10:30.746Z,54.51
2022-08-19T09:13:27.050Z,52.18
2022-08-19T09:16:07.749Z,50.64
2022-08-19T09:18:50.051Z,49.48
2022-08-19T09:21:17.179Z,48.76
2022-08-19T09:23:44.658Z,47.25
2022-08-19T09:26:16.478Z,46.42
2022-08-19T09:28:45.686Z,45.84
2022-08-19T09:31:19.372Z,45.47
2022-08-19T09:33:47.251Z,46.07
2022-08-19T09:36:24.274Z,47.66
2022-08-19T09:39:01.574Z,48.99
2022-08-19T09:41:29.757Z,49.47
2022-08-19T09:43:58.651Z,49.00
2022-08-19T09:46:29.642Z,48.28
2022-08-19T09:49:06.047Z,47.45
2022-08-19T09:51:35.109Z,47.37
2022-08-19T09:54:06.454Z,48.35
2022-08-19T09:56:34.664Z,48.59
2022-08-19T09:59:04.763Z,49.09
2022-08-19T10:01:33.232Z,50.49
2022-08-19T10:04:07.580Z,51.36
2022-08-19T10:06:46.672Z,52.11
2022-08-19T10:09:15.639Z,52.79
2022-08-19T10:11:52.206Z,53.59
2022-08-19T10:14:23.559Z,53.82
2022-08-19T10:16:52.944Z,54.52
2022-08-19T10:19:25.736Z,54.92
2022-08-19T10:21:54.356Z,55.04
2022-08-19T10:24:25.329Z,55.27
2022-08-19T10:26:57.195Z,55.34
2022-08-19T10:29:32.064Z,55.74
2022-08-19T10:32:04.572Z,56.18
2022-08-19T10:34:38.213Z,57.03
2022-08-19T10:37:23.712Z,57.91
2022-08-19T10:39:51.633Z,58.84
2022-08-19T10:42:20.620Z,59.04
2022-08-19T10:44:52.071Z,59.25
2022-08-19T10:47:25.514Z,59.11
2022-08-19T10:50:14.221Z,59.03
2022-08-19T10:52:49.266Z,58.54
2022-08-19T10:55:40.416Z,58.42
2022-08-19T10:58:16.036Z,58.38
2022-08-19T11:00:46.609Z,58.13
2022-08-19T11:03:13.475Z,57.82
2022-08-19T11:05:42.357Z,57.50
2022-08-19T11:08:22.619Z,57.65
2022-08-19T11:10:50.670Z,57.48
2022-08-19T11:13:17.442Z,56.55
2022-08-19T11:15:45.108Z,55.97
2022-08-19T11:18:13.364Z,54.96
2022-08-19T11:20:40.384Z,54.64
2022-08-19T11:23:07.561Z,54.45
2022-08-19T11:25:35.557Z,54.32
2022-08-19T11:28:02.483Z,54.24
2022-08-19T11:30:29.281Z,53.76
2022-08-19T11:32:56.053Z,54.14
2022-08-19T11:35:24.375Z,53.95
2022-08-19T11:37:51.366Z,54.29
2022-08-19T11:40:18.246Z,53.81
2022-08-19T11:42:57.723Z,53.99
2022-08-19T11:45:26.772Z,54.20
2022-08-19T11:47:54.645Z,53.48
2022-08-19T11:50:22.231Z,53.10
2022-08-19T11:52:50.724Z,53.19
2022-08-19T11:55:17.595Z,53.75
2022-08-19T11:57:44.782Z,53.50
2022-08-19T12:00:14.088Z,53.46
2022-08-19T12:02:41.714Z,53.62
2022-08-19T12:05:12.501Z,53.62
2022-08-19T12:07:40.824Z,53.57
2022-08-19T12:10:08.016Z,53.70
2022-08-19T12:12:35.519Z,53.61
2022-08-19T12:15:03.154Z,53.67
2022-08-19T12:17:31.943Z,53.46
2022-08-19T12:19:58.748Z,53.24
2022-08-19T12:22:25.711Z,52.68
2022-08-19T12:24:54.288Z,52.17
2022-08-19T12:27:40.357Z,51.71
2022-08-19T12:30:12.956Z,51.04
2022-08-19T12:32:39.901Z,50.53
2022-08-19T12:35:08.115Z,50.73
2022-08-19T12:37:35.062Z,50.76
2022-08-19T12:40:03.996Z,51.48
2022-08-19T12:42:31.598Z,51.53
2022-08-19T12:44:58.381Z,51.24
2022-08-19T12:47:27.599Z,51.13
2022-08-19T12:49:56.052Z,50.88
2022-08-19T12:52:25.564Z,50.95
2022-08-19T12:54:54.973Z,50.87
2022-08-19T12:57:32.317Z,50.58
2022-08-19T13:00:12.079Z,50.97
2022-08-19T13:02:43.039Z,51.14
2022-08-19T13:05:15.702Z,51.40
2022-08-19T13:07:47.826Z,50.90
2022-08-19T13:10:17.646Z,50.88
2022-08-19T13:12:48.020Z,50.73
2022-08-19T13:15:17.614Z,50.75
2022-08-19T13:17:46.095Z,51.21
2022-08-19T13:20:14.123Z,51.01
2022-08-19T13:22:41.928Z,50.52
2022-08-19T13:25:09.721Z,50.38
2022-08-19T13:27:37.875Z,50.33
2022-08-19T13:30:25.151Z,50.58
2022-08-19T13:33:10.679Z,50.52
2022-08-19T13:35:40.131Z,50.29
2022-08-19T13:38:12.083Z,50.22
2022-08-19T13:40:42.102Z,49.77
2022-08-19T13:43:19.377Z,49.12
2022-08-19T13:45:57.062Z,49.11
2022-08-19T13:48:27.826Z,48.62
2022-08-19T13:50:55.276Z,49.02
2022-08-19T13:53:22.346Z,48.46
2022-08-19T13:55:50.983Z,48.16
2022-08-19T13:58:17.754Z,48.53
2022-08-19T14:00:47.479Z,48.79
2022-08-19T14:03:14.450Z,48.13
2022-08-19T14:05:41.292Z,47.42
2022-08-19T14:08:09.796Z,47.43
2022-08-19T14:10:36.525Z,47.59
2022-08-19T14:13:04.765Z,47.60
2022-08-19T14:15:31.791Z,46.83
2022-08-19T14:18:00.418Z,47.16
2022-08-19T14:20:27.677Z,47.31
2022-08-19T14:22:55.749Z,47.74
2022-08-19T14:25:27.013Z,47.86
2022-08-19T14:27:54.928Z,48.00
2022-08-19T14:30:27.902Z,48.09
2022-08-19T14:32:56.237Z,48.89
2022-08-19T14:35:23.676Z,49.96
2022-08-19T14:37:51.257Z,51.12
2022-08-19T14:40:23.569Z,52.07
2022-08-19T14:42:50.278Z,53.19
2022-08-19T14:45:17.093Z,54.09
2022-08-19T14:47:46.140Z,54.14
2022-08-19T14:50:17.851Z,54.36
2022-08-19T14:52:51.065Z,54.57
2022-08-19T14:55:18.343Z,54.63
2022-08-19T14:57:46.314Z,55.18
2022-08-19T15:00:14.437Z,56.03
2022-08-19T15:02:42.162Z,56.77
2022-08-19T15:05:10.181Z,57.23
2022-08-19T15:07:38.336Z,57.86
2022-08-19T15:10:10.623Z,57.31
2022-08-19T15:12:40.810Z,57.31
2022-08-19T15:15:13.819Z,56.47
2022-08-19T15:17:45.401Z,55.49
2022-08-19T15:20:19.229Z,55.08
2022-08-19T15:22:46.590Z,54.96
2022-08-19T15:25:16.047Z,54.24
2022-08-19T15:27:42.828Z,54.01
2022-08-19T15:30:11.245Z,54.15
2022-08-19T15:32:39.017Z,54.25
2022-08-19T15:35:08.280Z,54.35
2022-08-19T15:37:37.283Z,54.61
2022-08-19T15:40:09.092Z,54.10
2022-08-19T15:42:37.679Z,54.09
2022-08-19T15:45:10.246Z,53.24
2022-08-19T15:47:37.713Z,52.76
2022-08-19T15:50:10.768Z,51.63
2022-08-19T15:52:49.597Z,50.61
2022-08-19T15:55:32.198Z,50.05
2022-08-19T15:58:30.083Z,50.10
2022-08-19T16:01:21.210Z,50.77
2022-08-19T16:04:14.922Z,51.61
2022-08-19T16:06:49.903Z,51.73
2022-08-19T16:09:21.165Z,51.64
2022-08-19T16:11:56.800Z,51.37
2022-08-19T16:14:25.286Z,50.50
2022-08-19T16:16:52.198Z,50.74
2022-08-19T16:19:20.245Z,50.18
2022-08-19T16:21:50.369Z,49.88
2022-08-19T16:24:20.097Z,49.52
2022-08-19T16:26:48.356Z,49.24
2022-08-19T16:29:34.001Z,49.03
2022-08-19T16:32:03.936Z,49.75
2022-08-19T16:34:31.219Z,50.13
2022-08-19T16:36:58.094Z,50.15
2022-08-19T16:39:24.989Z,49.58
2022-08-19T16:41:51.768Z,49.53
2022-08-19T16:44:21.002Z,49.76
2022-08-19T16:46:57.231Z,49.53
2022-08-19T16:49:52.297Z,49.34
2022-08-19T16:52:16.993Z,49.30
2022-08-19T16:54:44.793Z,49.32
2022-08-19T16:57:12.404Z,48.53
2022-08-19T16:59:44.155Z,48.15
2022-08-19T17:02:20.539Z,47.80
2022-08-19T17:04:58.150Z,47.72
2022-08-19T17:07:32.207Z,47.92
2022-08-19T17:10:03.552Z,48.03
2022-08-19T17:12:32.029Z,48.15
2022-08-19T17:15:05.223Z,48.07
2022-08-19T17:17:32.067Z,48.08
2022-08-19T17:20:00.587Z,48.35
2022-08-19T17:22:28.033Z,47.92
2022-08-19T17:24:56.478Z,48.17
2022-08-19T17:27:27.046Z,48.36
2022-08-19T17:29:59.976Z,48.32
2022-08-19T17:32:27.897Z,48.99
2022-08-19T17:34:54.688Z,49.01
2022-08-19T17:37:21.806Z,49.57
2022-08-19T17:39:48.936Z,50.17
2022-08-19T17:42:15.740Z,50.44
2022-08-19T17:44:42.707Z,50.72
2022-08-19T17:47:13.135Z,51.28
2022-08-19T17:49:40.012Z,51.36
2022-08-19T17:52:09.928Z,51.60
2022-08-19T17:54:37.408Z,51.85
2022-08-19T17:57:04.392Z,51.71
2022-08-19T17:59:31.190Z,51.89
2022-08-19T18:01:59.489Z,52.47
2022-08-19T18:04:29.863Z,52.74
2022-08-19T18:06:57.296Z,53.08
2022-08-19T18:09:26.387Z,53.13
2022-08-19T18:11:55.248Z,53.50
2022-08-19T18:14:32.238Z,53.38
2022-08-19T18:17:09.293Z,53.83
2022-08-19T18:19:41.149Z,54.13
2022-08-19T18:22:29.172Z,54.17
2022-08-19T18:24:57.963Z,54.40
2022-08-19T18:27:26.370Z,54.63
2022-08-19T18:29:59.577Z,54.94
2022-08-19T18:32:32.677Z,55.27
2022-08-19T18:35:01.347Z,55.52
2022-08-19T18:37:28.147Z,55.95
2022-08-19T18:40:13.743Z,56.48
2022-08-19T18:43:03.375Z,56.75
2022-08-19T18:45:49.271Z,56.65
2022-08-19T18:48:35.391Z,56.93
2022-08-19T18:51:02.515Z,56.99
2022-08-19T18:53:32.610Z,57.46
2022-08-19T18:55:59.795Z,57.48
2022-08-19T18:58:36.165Z,57.41
2022-08-19T19:01:14.559Z,57.42
2022-08-19T19:03:45.901Z,57.77
2022-08-19T19:06:22.635Z,57.74
2022-08-19T19:08:51.448Z,57.96
2022-08-19T19:11:23.759Z,58.01
2022-08-19T19:13:50.542Z,58.27
2022-08-19T19:16:22.446Z,58.27
2022-08-19T19:18:52.861Z,58.53
2022-08-19T19:21:24.565Z,58.64
2022-08-19T19:23:53.963Z,58.95
2022-08-19T19:26:21.832Z,59.33
2022-08-19T19:28:49.127Z,59.57
2022-08-19T19:31:23.108Z,60.04
2022-08-19T19:33:50.475Z,60.02
2022-08-19T19:36:17.331Z,60.30
2022-08-19T19:38:48.533Z,59.98
2022-08-19T19:41:19.928Z,60.36
2022-08-19T19:43:46.838Z,60.94
2022-08-19T19:46:16.505Z,60.78
2022-08-19T19:48:43.566Z,61.03
2022-08-19T19:51:10.386Z,61.31
2022-08-19T19:53:37.108Z,61.71
2022-08-19T19:56:06.779Z,61.85
2022-08-19T19:58:36.999Z,61.80
2022-08-19T20:01:09.726Z,62.16
2022-08-19T20:03:36.853Z,62.23
2022-08-19T20:06:03.727Z,62.56
2022-08-19T20:08:49.258Z,62.43
2022-08-19T20:11:29.180Z,62.88
2022-08-19T20:13:55.982Z,62.92
2022-08-19T20:16:25.400Z,63.18
2022-08-19T20:18:52.969Z,63.23
2022-08-19T20:21:23.836Z,63.50
2022-08-19T20:24:08.594Z,63.66
2022-08-19T20:26:36.747Z,63.89
2022-08-19T20:29:13.833Z,64.13
2022-08-19T20:31:58.984Z,64.13
2022-08-19T20:34:26.895Z,64.21
2022-08-19T20:36:53.699Z,64.16
2022-08-19T20:39:20.545Z,64.42
2022-08-19T20:41:47.292Z,64.56
2022-08-19T20:44:14.001Z,64.57
2022-08-19T20:46:40.820Z,64.64
2022-08-19T20:49:08.305Z,64.87
2022-08-19T20:51:35.455Z,65.12
2022-08-19T20:54:02.331Z,65.43
2022-08-19T20:56:29.767Z,65.47
2022-08-19T20:59:00.066Z,65.71
2022-08-19T21:01:27.139Z,66.02
2022-08-19T21:03:53.945Z,66.04
2022-08-19T21:06:23.172Z,66.18
2022-08-19T21:08:50.134Z,66.34
2022-08-19T21:11:20.738Z,66.44
2022-08-19T21:13:48.419Z,66.47
2022-08-19T21:16:15.184Z,66.51
2022-08-19T21:18:41.927Z,66.70
2022-08-19T21:21:08.660Z,66.94
2022-08-19T21:23:35.670Z,67.00
2022-08-19T21:26:02.545Z,67.25
2022-08-19T21:28:36.002Z,67.46
2022-08-19T21:31:05.467Z,67.72
2022-08-19T21:33:33.016Z,67.94
2022-08-19T21:36:00.307Z,68.09
2022-08-19T21:38:27.514Z,68.15
2022-08-19T21:40:54.506Z,68.39
2022-08-19T21:43:21.780Z,68.59
2022-08-19T21:45:51.066Z,68.84
2022-08-19T21:48:18.918Z,68.80
2022-08-19T21:50:48.532Z,69.09
2022-08-19T21:53:18.900Z,69.28
2022-08-19T21:55:52.739Z,69.24
2022-08-19T21:58:29.932Z,69.44
2022-08-19T22:00:59.356Z,69.48
2022-08-19T22:03:26.988Z,69.68
2022-08-19T22:05:54.090Z,69.86
2022-08-19T22:08:20.856Z,69.67
2022-08-19T22:10:49.153Z,69.87
2022-08-19T22:13:18.295Z,69.91
2022-08-19T22:15:52.009Z,69.86
2022-08-19T22:18:19.075Z,69.93
2022-08-19T22:20:46.092Z,69.95
2022-08-19T22:23:12.889Z,70.11
2022-08-19T22:25:45.906Z,70.15
2022-08-19T22:28:14.921Z,70.12
2022-08-19T22:30:47.269Z,70.12
2022-08-19T22:33:18.816Z,70.17
2022-08-19T22:35:47.244Z,70.10
2022-08-19T22:38:15.036Z,69.94
2022-08-19T22:40:47.406Z,69.88
2022-08-19T22:43:30.156Z,70.23
2022-08-19T22:45:58.784Z,70.43
2022-08-19T22:48:28.803Z,70.38
2022-08-19T22:51:15.045Z,70.51
2022-08-19T22:53:45.105Z,70.48
2022-08-19T22:56:15.482Z,70.62
2022-08-19T22:58:43.429Z,70.60
2022-08-19T23:01:11.685Z,70.56
2022-08-19T23:03:56.376Z,70.72
2022-08-19T23:06:23.329Z,70.70
2022-08-19T23:08:58.067Z,70.82
2022-08-19T23:11:25.107Z,70.96
2022-08-19T23:13:52.072Z,71.05
2022-08-19T23:16:18.859Z,71.07
2022-08-19T23:18:45.745Z,71.16
2022-08-19T23:21:12.480Z,71.09
2022-08-19T23:23:39.387Z,71.25
2022-08-19T23:26:06.301Z,71.47
2022-08-19T23:28:57.400Z,71.18
2022-08-19T23:31:26.192Z,71.44
2022-08-19T23:33:53.569Z,71.50
2022-08-19T23:36:21.075Z,71.71
2022-08-19T23:38:49.725Z,71.71
2022-08-19T23:41:18.969Z,71.92
2022-08-19T23:43:46.088Z,72.08
2022-08-19T23:46:27.713Z,72.24
2022-08-19T23:48:55.740Z,72.42
2022-08-19T23:51:22.785Z,72.41
2022-08-19T23:53:49.791Z,72.60
2022-08-19T23:56:16.592Z,72.64
2022-08-19T23:58:43.374Z,72.53
